Phillips, Oklahoma
Current Conditions -  °F | °C
As of 8:35 AM on Sunday 23 Nov 2014 (Local Time) from KAQR Reporting Station
Overcast Overcast  
Wind Chill: 59°   Ceiling: 600
Heat Index: 59°   Visibility: 10mi
Dew Point: 57°   Wind: 8mph
Humidity: 94%   Direction: 170°S
Pressure: 29.53"   Gusts: NA
Location:  34.5844°N, 96.2026°W
Report Text: KAQR 231435Z AUTO 17007KT 10SM OVC006 15/14 A2953 RMK AO2
Loading
Personal Weather Stations






























Interactive Weather Map New forecast layout! Learn more

10-Day Weather Forecast

Advertisements
Track Severe Weather on mobile